Observations for MIDDLE WALLOP, United Kingdom (EGVP)

EGVP 140750Z 28005KT 9999 FEW016 BKN035 18/14 Q1016 BLU NOSIG   
EGVP 140650Z 28006KT 9999 FEW032 BKN045 16/14 Q1016 BLU NOSIG   
EGVP 140550Z 26004KT 9999 FEW012 BKN045 15/14 Q1016 BLU 
EGVP 140450Z AUTO 24002KT 9999 // OVC037/// 14/13 Q1015 
EGVP 140350Z AUTO 28002KT 9999 // BKN042/// BKN230/// 13/12 Q1015   
EGVP 140250Z AUTO 31001KT 9999 // FEW230/// 13/12 Q1015 
EGVP 140150Z AUTO 29004KT 9999 // FEW250/// 13/11 Q1014 
EGVP 140050Z AUTO 29003KT 9999 // NCD 14/12 Q1014   
EGVP 132350Z AUTO 28003KT 9999 // NCD 14/12 Q1013   
EGVP 132250Z AUTO 28006KT 9999 // NCD 15/13 Q1013   
EGVP 132150Z AUTO 29006KT 9999 // FEW070/// 17/13 Q1012 
EGVP 132050Z AUTO 34003KT 9999 // SCT060/// 18/16 Q1012 
EGVP 131950Z AUTO 32005KT 9999 // SCT025/// BKN039/// 19/16 Q1011   
EGVP 131850Z AUTO 32008KT 9999 // FEW025/// BKN050/// 19/16 Q1010   
EGVP 131750Z AUTO 29009KT 9999 // FEW032/// SCT070/// 22/15 Q1009   
EGVP 131650Z AUTO 31008KT 9999 // BKN070/// 22/14 Q1009 
EGVP 131550Z 31010KT 9999 FEW033 BKN050 22/14 Q1009 BLU NOSIG   
EGVP 131450Z 28010KT 9999 FEW033 BKN060 22/13 Q1008 BLU NOSIG   
EGVP 131350Z 26012KT 9999 FEW033 BKN050 22/13 Q1008 BLU NOSIG   
EGVP 131250Z 28009KT 9999 SCT037 BKN050 22/12 Q1008 BLU NOSIG   
EGVP 131150Z 29007KT 9999 FEW025 SCT055 20/14 Q1008 BLU NOSIG   
EGVP 131126Z 30005KT 9999 FEW023 BKN047 19/14 Q1008 BLU TEMPO SCT023 WHT
EGVP 131050Z 29007KT 9999 SCT022 BKN045 19/13 Q1008 WHT BECMG SCT025 BLU
EGVP 130950Z 30005KT 9999 SCT018 BKN047 19/14 Q1007 WHT TEMPO FEW018 BLU
EGVP 130920Z 32007KT 9999 SCT016 BKN045 19/14 Q1007 WHT TEMPO FEW016 BLU
EGVP 130850Z 29006KT 9999 SCT013 BKN045 18/15 Q1007 GRN BECMG SCT015 WHT
EGVP 130750Z 30006KT 9999 SCT008 BKN048 17/15 Q1007 GRN TEMPO FEW008 BLU